sensor_id;sensor_type;location;lat;lon;timestamp;P1;durP1;ratioP1;P2;durP2;ratioP2
1204;SDS011;592;48.764;9.174;2023-12-20T00:01:01;3.70;;;1.57;;
1204;SDS011;592;48.764;9.174;2023-12-20T00:03:28;2.30;;;0.80;;
1204;SDS011;592;48.764;9.174;2023-12-20T00:05:55;4.53;;;1.10;;
1204;SDS011;592;48.764;9.174;2023-12-20T00:08:22;2.70;;;1.00;;
1204;SDS011;592;48.764;9.174;2023-12-20T00:10:48;2.57;;;1.00;;
1204;SDS011;592;48.764;9.174;2023-12-20T00:13:15;2.80;;;1.13;;
1204;SDS011;592;48.764;9.174;2023-12-20T00:15:43;2.10;;;0.70;;
1204;SDS011;592;48.764;9.174;2023-12-20T00:18:10;2.70;;;0.90;;
1204;SDS011;592;48.764;9.174;2023-12-20T00:20:36;2.60;;;1.07;;
1204;SDS011;592;48.764;9.174;2023-12-20T00:23:03;2.60;;;0.90;;
1204;SDS011;592;48.764;9.174;2023-12-20T00:25:30;2.20;;;0.87;;
1204;SDS011;592;48.764;9.174;2023-12-20T00:27:56;2.23;;;0.97;;
1204;SDS011;592;48.764;9.174;2023-12-20T00:30:23;3.03;;;1.00;;
1204;SDS011;592;48.764;9.174;2023-12-20T00:32:51;2.00;;;0.70;;
1204;SDS011;592;48.764;9.174;2023-12-20T00:35:18;2.60;;;1.03;;
1204;SDS011;592;48.764;9.174;2023-12-20T00:37:45;2.23;;;0.90;;
1204;SDS011;592;48.764;9.174;2023-12-20T00:40:11;2.30;;;0.90;;
1204;SDS011;592;48.764;9.174;2023-12-20T00:42:38;2.37;;;0.90;;
1204;SDS011;592;48.764;9.174;2023-12-20T00:45:05;2.27;;;0.83;;
1204;SDS011;592;48.764;9.174;2023-12-20T00:47:33;2.17;;;0.80;;
1204;SDS011;592;48.764;9.174;2023-12-20T00:50:01;3.03;;;1.07;;
1204;SDS011;592;48.764;9.174;2023-12-20T00:52:28;2.20;;;0.80;;
1204;SDS011;592;48.764;9.174;2023-12-20T00:54:55;2.53;;;0.90;;
1204;SDS011;592;48.764;9.174;2023-12-20T00:57:21;2.47;;;0.87;;
1204;SDS011;592;48.764;9.174;2023-12-20T00:59:48;2.27;;;0.77;;
1204;SDS011;592;48.764;9.174;2023-12-20T01:02:15;2.20;;;0.83;;
1204;SDS011;592;48.764;9.174;2023-12-20T01:04:41;2.70;;;1.00;;
1204;SDS011;592;48.764;9.174;2023-12-20T01:07:09;3.70;;;0.80;;
1204;SDS011;592;48.764;9.174;2023-12-20T01:09:36;2.20;;;0.83;;
1204;SDS011;592;48.764;9.174;2023-12-20T01:12:03;2.13;;;0.83;;
1204;SDS011;592;48.764;9.174;2023-12-20T01:14:30;2.17;;;0.83;;
1204;SDS011;592;48.764;9.174;2023-12-20T01:16:57;2.30;;;0.90;;
1204;SDS011;592;48.764;9.174;2023-12-20T01:19:24;2.30;;;0.80;;
1204;SDS011;592;48.764;9.174;2023-12-20T01:21:52;2.20;;;0.70;;
1204;SDS011;592;48.764;9.174;2023-12-20T01:24:20;2.00;;;0.70;;
1204;SDS011;592;48.764;9.174;2023-12-20T01:26:46;2.40;;;0.97;;
1204;SDS011;592;48.764;9.174;2023-12-20T01:29:13;2.33;;;0.80;;
1204;SDS011;592;48.764;9.174;2023-12-20T01:31:40;2.00;;;0.70;;
1204;SDS011;592;48.764;9.174;2023-12-20T01:34:07;2.10;;;0.80;;
1204;SDS011;592;48.764;9.174;2023-12-20T01:36:34;2.27;;;0.83;;
1204;SDS011;592;48.764;9.174;2023-12-20T01:39:00;1.97;;;0.70;;
1204;SDS011;592;48.764;9.174;2023-12-20T01:41:28;2.27;;;0.90;;
1204;SDS011;592;48.764;9.174;2023-12-20T01:43:55;2.23;;;0.83;;
1204;SDS011;592;48.764;9.174;2023-12-20T01:46:22;2.23;;;0.70;;
1204;SDS011;592;48.764;9.174;2023-12-20T01:48:49;2.60;;;0.97;;
1204;SDS011;592;48.764;9.174;2023-12-20T01:51:15;2.10;;;0.80;;
1204;SDS011;592;48.764;9.174;2023-12-20T01:53:43;2.10;;;0.80;;
1204;SDS011;592;48.764;9.174;2023-12-20T01:56:10;2.47;;;0.80;;
1204;SDS011;592;48.764;9.174;2023-12-20T01:58:39;2.10;;;0.80;;
1204;SDS011;592;48.764;9.174;2023-12-20T02:01:10;2.00;;;0.73;;
1204;SDS011;592;48.764;9.174;2023-12-20T02:03:37;2.00;;;0.77;;
1204;SDS011;592;48.764;9.174;2023-12-20T02:06:04;2.10;;;0.80;;
1204;SDS011;592;48.764;9.174;2023-12-20T02:08:31;1.90;;;0.70;;
1204;SDS011;592;48.764;9.174;2023-12-20T02:10:57;2.00;;;0.70;;
1204;SDS011;592;48.764;9.174;2023-12-20T02:13:24;2.30;;;0.70;;
1204;SDS011;592;48.764;9.174;2023-12-20T02:15:53;3.33;;;1.27;;
1204;SDS011;592;48.764;9.174;2023-12-20T02:18:21;2.50;;;0.83;;
1204;SDS011;592;48.764;9.174;2023-12-20T02:20:48;5.40;;;0.90;;
1204;SDS011;592;48.764;9.174;2023-12-20T02:23:16;2.13;;;0.83;;
1204;SDS011;592;48.764;9.174;2023-12-20T02:25:43;2.07;;;0.80;;
1204;SDS011;592;48.764;9.174;2023-12-20T02:28:09;1.90;;;0.70;;
1204;SDS011;592;48.764;9.174;2023-12-20T02:30:36;2.17;;;0.70;;
1204;SDS011;592;48.764;9.174;2023-12-20T02:33:03;2.47;;;0.90;;
1204;SDS011;592;48.764;9.174;2023-12-20T02:35:32;2.70;;;1.00;;
1204;SDS011;592;48.764;9.174;2023-12-20T02:37:59;2.30;;;0.80;;
1204;SDS011;592;48.764;9.174;2023-12-20T02:40:27;2.10;;;0.70;;
1204;SDS011;592;48.764;9.174;2023-12-20T02:42:54;2.07;;;0.73;;
1204;SDS011;592;48.764;9.174;2023-12-20T02:45:20;2.40;;;0.90;;
1204;SDS011;592;48.764;9.174;2023-12-20T02:47:47;2.30;;;0.80;;
1204;SDS011;592;48.764;9.174;2023-12-20T02:50:14;2.37;;;0.80;;
1204;SDS011;592;48.764;9.174;2023-12-20T02:52:40;2.10;;;0.80;;
1204;SDS011;592;48.764;9.174;2023-12-20T02:55:08;2.00;;;0.70;;
1204;SDS011;592;48.764;9.174;2023-12-20T02:57:36;2.10;;;0.80;;
1204;SDS011;592;48.764;9.174;2023-12-20T03:00:07;1.83;;;0.60;;
1204;SDS011;592;48.764;9.174;2023-12-20T03:02:34;2.00;;;0.73;;
1204;SDS011;592;48.764;9.174;2023-12-20T03:05:01;2.00;;;0.70;;
1204;SDS011;592;48.764;9.174;2023-12-20T03:07:28;2.40;;;0.80;;
1204;SDS011;592;48.764;9.174;2023-12-20T03:09:54;2.00;;;0.70;;
1204;SDS011;592;48.764;9.174;2023-12-20T03:12:21;2.57;;;0.80;;
1204;SDS011;592;48.764;9.174;2023-12-20T03:14:49;2.17;;;0.80;;
1204;SDS011;592;48.764;9.174;2023-12-20T03:17:16;1.90;;;0.60;;
1204;SDS011;592;48.764;9.174;2023-12-20T03:19:43;1.90;;;0.63;;
1204;SDS011;592;48.764;9.174;2023-12-20T03:22:10;2.00;;;0.70;;
1204;SDS011;592;48.764;9.174;2023-12-20T03:24:37;2.40;;;0.80;;
1204;SDS011;592;48.764;9.174;2023-12-20T03:27:04;2.10;;;0.70;;
1204;SDS011;592;48.764;9.174;2023-12-20T03:29:30;2.10;;;0.70;;
1204;SDS011;592;48.764;9.174;2023-12-20T03:31:58;1.80;;;0.50;;
1204;SDS011;592;48.764;9.174;2023-12-20T03:34:26;1.80;;;0.60;;
1204;SDS011;592;48.764;9.174;2023-12-20T03:36:54;2.07;;;0.77;;
1204;SDS011;592;48.764;9.174;2023-12-20T03:39:20;2.00;;;0.60;;
1204;SDS011;592;48.764;9.174;2023-12-20T03:41:47;2.20;;;0.60;;
1204;SDS011;592;48.764;9.174;2023-12-20T03:44:14;2.03;;;0.70;;
1204;SDS011;592;48.764;9.174;2023-12-20T03:46:40;1.83;;;0.60;;
1204;SDS011;592;48.764;9.174;2023-12-20T03:49:08;1.90;;;0.63;;
1204;SDS011;592;48.764;9.174;2023-12-20T03:51:35;1.80;;;0.60;;
1204;SDS011;592;48.764;9.174;2023-12-20T03:54:02;1.90;;;0.60;;
1204;SDS011;592;48.764;9.174;2023-12-20T03:56:29;1.80;;;0.50;;
1204;SDS011;592;48.764;9.174;2023-12-20T03:58:56;1.90;;;0.60;;
1204;SDS011;592;48.764;9.174;2023-12-20T04:01:22;1.80;;;0.60;;
1204;SDS011;592;48.764;9.174;2023-12-20T04:03:49;1.90;;;0.60;;
1204;SDS011;592;48.764;9.174;2023-12-20T04:06:17;1.80;;;0.50;;
1204;SDS011;592;48.764;9.174;2023-12-20T04:08:44;1.80;;;0.57;;
1204;SDS011;592;48.764;9.174;2023-12-20T04:11:11;1.80;;;0.50;;
1204;SDS011;592;48.764;9.174;2023-12-20T04:13:38;1.73;;;0.50;;
1204;SDS011;592;48.764;9.174;2023-12-20T04:16:05;2.17;;;0.60;;
1204;SDS011;592;48.764;9.174;2023-12-20T04:18:32;1.73;;;0.50;;
1204;SDS011;592;48.764;9.174;2023-12-20T04:20:58;1.80;;;0.50;;
1204;SDS011;592;48.764;9.174;2023-12-20T04:23:26;1.80;;;0.50;;
1204;SDS011;592;48.764;9.174;2023-12-20T04:25:54;1.80;;;0.50;;
1204;SDS011;592;48.764;9.174;2023-12-20T04:28:21;1.80;;;0.50;;
1204;SDS011;592;48.764;9.174;2023-12-20T04:30:47;1.90;;;0.60;;
1204;SDS011;592;48.764;9.174;2023-12-20T04:33:14;1.77;;;0.50;;
1204;SDS011;592;48.764;9.174;2023-12-20T04:35:41;1.77;;;0.50;;
1204;SDS011;592;48.764;9.174;2023-12-20T04:38:08;1.80;;;0.50;;
1204;SDS011;592;48.764;9.174;2023-12-20T04:40:36;5.13;;;0.70;;
1204;SDS011;592;48.764;9.174;2023-12-20T04:43:03;1.80;;;0.60;;
1204;SDS011;592;48.764;9.174;2023-12-20T04:45:29;3.80;;;0.63;;
1204;SDS011;592;48.764;9.174;2023-12-20T04:47:56;1.73;;;0.50;;
1204;SDS011;592;48.764;9.174;2023-12-20T04:50:23;1.80;;;0.50;;
1204;SDS011;592;48.764;9.174;2023-12-20T04:52:49;1.90;;;0.60;;
1204;SDS011;592;48.764;9.174;2023-12-20T04:55:16;1.80;;;0.60;;
1204;SDS011;592;48.764;9.174;2023-12-20T04:57:45;1.80;;;0.50;;
1204;SDS011;592;48.764;9.174;2023-12-20T05:00:12;1.80;;;0.60;;
1204;SDS011;592;48.764;9.174;2023-12-20T05:02:40;1.80;;;0.60;;
1204;SDS011;592;48.764;9.174;2023-12-20T05:05:07;1.80;;;0.50;;
1204;SDS011;592;48.764;9.174;2023-12-20T05:07:34;2.33;;;0.60;;
1204;SDS011;592;48.764;9.174;2023-12-20T05:10:01;2.13;;;0.60;;
1204;SDS011;592;48.764;9.174;2023-12-20T05:12:29;1.80;;;0.53;;
1204;SDS011;592;48.764;9.174;2023-12-20T05:14:57;1.70;;;0.50;;
1204;SDS011;592;48.764;9.174;2023-12-20T05:17:24;1.80;;;0.50;;
1204;SDS011;592;48.764;9.174;2023-12-20T05:19:51;1.80;;;0.57;;
1204;SDS011;592;48.764;9.174;2023-12-20T05:22:18;1.80;;;0.50;;
1204;SDS011;592;48.764;9.174;2023-12-20T05:24:45;1.80;;;0.60;;
1204;SDS011;592;48.764;9.174;2023-12-20T05:27:12;1.80;;;0.50;;
1204;SDS011;592;48.764;9.174;2023-12-20T05:29:39;1.90;;;0.60;;
1204;SDS011;592;48.764;9.174;2023-12-20T05:32:07;1.90;;;0.60;;
1204;SDS011;592;48.764;9.174;2023-12-20T05:34:33;1.80;;;0.50;;
1204;SDS011;592;48.764;9.174;2023-12-20T05:37:00;1.93;;;0.63;;
1204;SDS011;592;48.764;9.174;2023-12-20T05:39:27;1.80;;;0.60;;
1204;SDS011;592;48.764;9.174;2023-12-20T05:41:55;2.00;;;0.70;;
1204;SDS011;592;48.764;9.174;2023-12-20T05:44:22;2.67;;;0.80;;
1204;SDS011;592;48.764;9.174;2023-12-20T05:46:49;1.80;;;0.60;;
1204;SDS011;592;48.764;9.174;2023-12-20T05:49:17;2.07;;;0.60;;
1204;SDS011;592;48.764;9.174;2023-12-20T05:51:44;1.80;;;0.50;;
1204;SDS011;592;48.764;9.174;2023-12-20T05:54:11;1.80;;;0.50;;
1204;SDS011;592;48.764;9.174;2023-12-20T05:56:37;1.90;;;0.60;;
1204;SDS011;592;48.764;9.174;2023-12-20T05:59:04;1.80;;;0.50;;
1204;SDS011;592;48.764;9.174;2023-12-20T06:01:31;1.90;;;0.60;;
1204;SDS011;592;48.764;9.174;2023-12-20T06:03:57;1.97;;;0.67;;
1204;SDS011;592;48.764;9.174;2023-12-20T06:06:25;2.00;;;0.70;;
1204;SDS011;592;48.764;9.174;2023-12-20T06:08:52;2.30;;;0.77;;
1204;SDS011;592;48.764;9.174;2023-12-20T06:11:19;1.80;;;0.60;;
1204;SDS011;592;48.764;9.174;2023-12-20T06:13:45;1.80;;;0.50;;
1204;SDS011;592;48.764;9.174;2023-12-20T06:16:13;1.80;;;0.53;;
1204;SDS011;592;48.764;9.174;2023-12-20T06:18:40;2.20;;;0.70;;
1204;SDS011;592;48.764;9.174;2023-12-20T06:21:07;2.70;;;0.70;;
1204;SDS011;592;48.764;9.174;2023-12-20T06:23:39;2.17;;;0.70;;
1204;SDS011;592;48.764;9.174;2023-12-20T06:26:05;2.60;;;0.70;;
1204;SDS011;592;48.764;9.174;2023-12-20T06:28:32;2.33;;;0.67;;
1204;SDS011;592;48.764;9.174;2023-12-20T06:30:59;1.87;;;0.60;;
1204;SDS011;592;48.764;9.174;2023-12-20T06:33:26;2.00;;;0.63;;
1204;SDS011;592;48.764;9.174;2023-12-20T06:35:57;1.90;;;0.70;;
1204;SDS011;592;48.764;9.174;2023-12-20T06:38:23;1.90;;;0.70;;
1204;SDS011;592;48.764;9.174;2023-12-20T06:40:51;1.90;;;0.70;;
1204;SDS011;592;48.764;9.174;2023-12-20T06:43:18;1.80;;;0.50;;
1204;SDS011;592;48.764;9.174;2023-12-20T06:45:45;1.83;;;0.60;;
1204;SDS011;592;48.764;9.174;2023-12-20T06:48:11;2.00;;;0.60;;
1204;SDS011;592;48.764;9.174;2023-12-20T06:50:38;1.90;;;0.70;;
1204;SDS011;592;48.764;9.174;2023-12-20T06:53:05;1.80;;;0.60;;
1204;SDS011;592;48.764;9.174;2023-12-20T06:55:33;1.80;;;0.60;;
1204;SDS011;592;48.764;9.174;2023-12-20T06:58:01;1.97;;;0.70;;
1204;SDS011;592;48.764;9.174;2023-12-20T07:00:28;2.03;;;0.70;;
1204;SDS011;592;48.764;9.174;2023-12-20T07:02:55;2.30;;;0.90;;
1204;SDS011;592;48.764;9.174;2023-12-20T07:05:21;1.90;;;0.60;;
1204;SDS011;592;48.764;9.174;2023-12-20T07:07:48;2.00;;;0.63;;
1204;SDS011;592;48.764;9.174;2023-12-20T07:10:15;2.70;;;0.67;;
1204;SDS011;592;48.764;9.174;2023-12-20T07:12:41;1.80;;;0.57;;
1204;SDS011;592;48.764;9.174;2023-12-20T07:15:10;2.00;;;0.70;;
1204;SDS011;592;48.764;9.174;2023-12-20T07:17:37;1.80;;;0.60;;
1204;SDS011;592;48.764;9.174;2023-12-20T07:20:04;1.90;;;0.60;;
1204;SDS011;592;48.764;9.174;2023-12-20T07:22:34;2.20;;;0.60;;
1204;SDS011;592;48.764;9.174;2023-12-20T07:25:01;1.80;;;0.60;;
1204;SDS011;592;48.764;9.174;2023-12-20T07:27:28;1.80;;;0.50;;
1204;SDS011;592;48.764;9.174;2023-12-20T07:29:55;2.10;;;0.70;;
1204;SDS011;592;48.764;9.174;2023-12-20T07:32:23;2.13;;;0.80;;
1204;SDS011;592;48.764;9.174;2023-12-20T07:34:50;1.90;;;0.70;;
1204;SDS011;592;48.764;9.174;2023-12-20T07:37:16;2.20;;;0.80;;
1204;SDS011;592;48.764;9.174;2023-12-20T07:39:46;2.37;;;0.83;;
1204;SDS011;592;48.764;9.174;2023-12-20T07:42:13;2.93;;;1.10;;
1204;SDS011;592;48.764;9.174;2023-12-20T07:44:40;2.83;;;1.20;;
1204;SDS011;592;48.764;9.174;2023-12-20T07:47:07;2.20;;;1.00;;
1204;SDS011;592;48.764;9.174;2023-12-20T07:49:35;3.27;;;1.40;;
1204;SDS011;592;48.764;9.174;2023-12-20T07:52:01;2.57;;;1.03;;
1204;SDS011;592;48.764;9.174;2023-12-20T07:54:28;2.33;;;1.13;;
1204;SDS011;592;48.764;9.174;2023-12-20T07:56:55;3.60;;;1.20;;
1204;SDS011;592;48.764;9.174;2023-12-20T07:59:23;2.77;;;1.30;;
1204;SDS011;592;48.764;9.174;2023-12-20T08:01:49;2.70;;;1.20;;
1204;SDS011;592;48.764;9.174;2023-12-20T08:04:16;2.43;;;1.20;;
1204;SDS011;592;48.764;9.174;2023-12-20T08:06:44;3.57;;;1.43;;
1204;SDS011;592;48.764;9.174;2023-12-20T08:09:11;2.90;;;1.53;;
1204;SDS011;592;48.764;9.174;2023-12-20T08:11:38;5.03;;;1.63;;
1204;SDS011;592;48.764;9.174;2023-12-20T08:14:05;2.83;;;1.40;;
1204;SDS011;592;48.764;9.174;2023-12-20T08:16:32;3.10;;;1.67;;
1204;SDS011;592;48.764;9.174;2023-12-20T08:18:59;3.20;;;1.50;;
1204;SDS011;592;48.764;9.174;2023-12-20T08:21:25;3.37;;;1.63;;
1204;SDS011;592;48.764;9.174;2023-12-20T08:24:01;4.00;;;1.70;;
1204;SDS011;592;48.764;9.174;2023-12-20T08:26:28;3.27;;;1.50;;
1204;SDS011;592;48.764;9.174;2023-12-20T08:28:55;3.33;;;1.50;;
1204;SDS011;592;48.764;9.174;2023-12-20T08:31:21;4.47;;;1.40;;
1204;SDS011;592;48.764;9.174;2023-12-20T08:33:48;3.33;;;1.30;;
1204;SDS011;592;48.764;9.174;2023-12-20T08:36:15;3.37;;;1.33;;
1204;SDS011;592;48.764;9.174;2023-12-20T08:38:43;3.50;;;1.63;;
1204;SDS011;592;48.764;9.174;2023-12-20T08:41:12;2.93;;;1.33;;
1204;SDS011;592;48.764;9.174;2023-12-20T08:43:38;2.77;;;1.33;;
1204;SDS011;592;48.764;9.174;2023-12-20T08:46:05;3.40;;;1.50;;
1204;SDS011;592;48.764;9.174;2023-12-20T08:48:34;3.10;;;1.60;;
1204;SDS011;592;48.764;9.174;2023-12-20T08:51:01;3.00;;;1.47;;
1204;SDS011;592;48.764;9.174;2023-12-20T08:53:27;2.70;;;1.33;;
1204;SDS011;592;48.764;9.174;2023-12-20T08:55:55;3.40;;;1.60;;
1204;SDS011;592;48.764;9.174;2023-12-20T08:58:27;3.23;;;1.60;;
1204;SDS011;592;48.764;9.174;2023-12-20T09:00:54;4.60;;;1.60;;
1204;SDS011;592;48.764;9.174;2023-12-20T09:03:22;4.23;;;1.93;;
1204;SDS011;592;48.764;9.174;2023-12-20T09:05:49;2.83;;;1.70;;
1204;SDS011;592;48.764;9.174;2023-12-20T09:08:16;3.00;;;1.40;;
1204;SDS011;592;48.764;9.174;2023-12-20T09:10:42;3.90;;;1.83;;
1204;SDS011;592;48.764;9.174;2023-12-20T09:13:09;3.90;;;1.83;;
1204;SDS011;592;48.764;9.174;2023-12-20T09:15:37;5.33;;;1.50;;
1204;SDS011;592;48.764;9.174;2023-12-20T09:18:04;2.93;;;1.13;;
1204;SDS011;592;48.764;9.174;2023-12-20T09:20:31;3.00;;;1.50;;
1204;SDS011;592;48.764;9.174;2023-12-20T09:22:58;4.30;;;1.30;;
1204;SDS011;592;48.764;9.174;2023-12-20T09:25:25;2.73;;;1.37;;
1204;SDS011;592;48.764;9.174;2023-12-20T09:27:52;2.87;;;1.47;;
1204;SDS011;592;48.764;9.174;2023-12-20T09:30:18;3.43;;;1.43;;
1204;SDS011;592;48.764;9.174;2023-12-20T09:32:46;3.00;;;1.40;;
1204;SDS011;592;48.764;9.174;2023-12-20T09:35:12;2.60;;;1.20;;
1204;SDS011;592;48.764;9.174;2023-12-20T09:37:39;5.00;;;1.50;;
1204;SDS011;592;48.764;9.174;2023-12-20T09:40:10;3.80;;;1.47;;
1204;SDS011;592;48.764;9.174;2023-12-20T09:42:39;4.83;;;2.00;;
1204;SDS011;592;48.764;9.174;2023-12-20T09:45:14;2.57;;;1.20;;
1204;SDS011;592;48.764;9.174;2023-12-20T09:47:41;6.07;;;1.43;;
1204;SDS011;592;48.764;9.174;2023-12-20T09:50:11;2.70;;;1.27;;
1204;SDS011;592;48.764;9.174;2023-12-20T09:52:39;4.40;;;1.60;;
1204;SDS011;592;48.764;9.174;2023-12-20T09:55:07;5.60;;;1.93;;
1204;SDS011;592;48.764;9.174;2023-12-20T09:57:34;5.77;;;1.40;;
1204;SDS011;592;48.764;9.174;2023-12-20T10:00:01;3.23;;;0.90;;
1204;SDS011;592;48.764;9.174;2023-12-20T10:02:29;4.50;;;1.37;;
1204;SDS011;592;48.764;9.174;2023-12-20T10:04:57;3.50;;;0.97;;
1204;SDS011;592;48.764;9.174;2023-12-20T10:07:26;2.17;;;0.90;;
1204;SDS011;592;48.764;9.174;2023-12-20T10:09:54;5.13;;;1.47;;
1204;SDS011;592;48.764;9.174;2023-12-20T10:12:21;2.80;;;1.10;;
1204;SDS011;592;48.764;9.174;2023-12-20T10:14:48;2.73;;;0.90;;
1204;SDS011;592;48.764;9.174;2023-12-20T10:17:18;11.37;;;1.43;;
1204;SDS011;592;48.764;9.174;2023-12-20T10:19:48;4.13;;;1.50;;
1204;SDS011;592;48.764;9.174;2023-12-20T10:24:54;5.60;;;1.40;;
1204;SDS011;592;48.764;9.174;2023-12-20T10:27:25;2.90;;;1.00;;
1204;SDS011;592;48.764;9.174;2023-12-20T10:32:27;2.60;;;1.00;;
1204;SDS011;592;48.764;9.174;2023-12-20T10:34:54;2.50;;;0.90;;
1204;SDS011;592;48.764;9.174;2023-12-20T10:37:21;5.00;;;1.37;;
1204;SDS011;592;48.764;9.174;2023-12-20T10:39:49;4.13;;;1.20;;
1204;SDS011;592;48.764;9.174;2023-12-20T10:42:21;3.90;;;1.23;;
1204;SDS011;592;48.764;9.174;2023-12-20T10:44:48;3.17;;;1.10;;
1204;SDS011;592;48.764;9.174;2023-12-20T10:47:16;2.90;;;1.30;;
1204;SDS011;592;48.764;9.174;2023-12-20T10:49:42;3.80;;;1.20;;
1204;SDS011;592;48.764;9.174;2023-12-20T10:52:11;5.73;;;1.10;;
1204;SDS011;592;48.764;9.174;2023-12-20T10:54:38;3.70;;;1.20;;
1204;SDS011;592;48.764;9.174;2023-12-20T10:57:07;6.03;;;1.57;;
1204;SDS011;592;48.764;9.174;2023-12-20T10:59:36;2.80;;;1.00;;
1204;SDS011;592;48.764;9.174;2023-12-20T11:02:03;2.50;;;0.90;;
1204;SDS011;592;48.764;9.174;2023-12-20T11:07:17;6.97;;;1.10;;
1204;SDS011;592;48.764;9.174;2023-12-20T11:09:49;2.47;;;0.97;;
1204;SDS011;592;48.764;9.174;2023-12-20T11:12:28;4.37;;;1.30;;
1204;SDS011;592;48.764;9.174;2023-12-20T11:15:03;2.40;;;0.93;;
1204;SDS011;592;48.764;9.174;2023-12-20T11:17:31;3.00;;;1.13;;
1204;SDS011;592;48.764;9.174;2023-12-20T11:20:04;3.03;;;1.23;;
1204;SDS011;592;48.764;9.174;2023-12-20T11:22:33;6.50;;;1.20;;
1204;SDS011;592;48.764;9.174;2023-12-20T11:30:41;4.90;;;1.37;;
1204;SDS011;592;48.764;9.174;2023-12-20T11:33:08;5.50;;;1.47;;
1204;SDS011;592;48.764;9.174;2023-12-20T11:35:35;2.50;;;1.00;;
1204;SDS011;592;48.764;9.174;2023-12-20T11:38:04;2.50;;;1.10;;
1204;SDS011;592;48.764;9.174;2023-12-20T11:40:33;5.13;;;1.20;;
1204;SDS011;592;48.764;9.174;2023-12-20T11:43:01;3.23;;;0.90;;
1204;SDS011;592;48.764;9.174;2023-12-20T11:45:29;2.23;;;0.90;;
1204;SDS011;592;48.764;9.174;2023-12-20T11:47:58;2.90;;;1.20;;
1204;SDS011;592;48.764;9.174;2023-12-20T11:50:25;2.00;;;0.80;;
1204;SDS011;592;48.764;9.174;2023-12-20T11:52:53;3.10;;;1.23;;
1204;SDS011;592;48.764;9.174;2023-12-20T11:55:25;2.80;;;1.30;;
1204;SDS011;592;48.764;9.174;2023-12-20T11:57:52;2.73;;;1.00;;
1204;SDS011;592;48.764;9.174;2023-12-20T12:00:19;3.00;;;1.17;;
1204;SDS011;592;48.764;9.174;2023-12-20T12:02:55;2.80;;;1.10;;
1204;SDS011;592;48.764;9.174;2023-12-20T12:05:24;2.63;;;0.80;;
1204;SDS011;592;48.764;9.174;2023-12-20T12:07:51;2.70;;;1.03;;
1204;SDS011;592;48.764;9.174;2023-12-20T12:10:18;3.17;;;1.10;;
1204;SDS011;592;48.764;9.174;2023-12-20T12:12:45;3.27;;;1.47;;
1204;SDS011;592;48.764;9.174;2023-12-20T12:15:11;3.60;;;1.07;;
1204;SDS011;592;48.764;9.174;2023-12-20T12:17:38;4.43;;;1.77;;
1204;SDS011;592;48.764;9.174;2023-12-20T12:20:06;3.23;;;1.40;;
1204;SDS011;592;48.764;9.174;2023-12-20T12:22:36;3.70;;;1.50;;
1204;SDS011;592;48.764;9.174;2023-12-20T12:25:12;2.20;;;0.90;;
1204;SDS011;592;48.764;9.174;2023-12-20T12:27:39;4.37;;;1.50;;
1204;SDS011;592;48.764;9.174;2023-12-20T12:30:07;3.50;;;1.23;;
1204;SDS011;592;48.764;9.174;2023-12-20T12:32:38;2.20;;;0.90;;
1204;SDS011;592;48.764;9.174;2023-12-20T12:35:05;3.60;;;1.40;;
1204;SDS011;592;48.764;9.174;2023-12-20T12:37:35;3.03;;;1.40;;
1204;SDS011;592;48.764;9.174;2023-12-20T12:40:04;4.53;;;2.10;;
1204;SDS011;592;48.764;9.174;2023-12-20T12:42:32;5.60;;;1.67;;
1204;SDS011;592;48.764;9.174;2023-12-20T12:45:03;2.70;;;1.10;;
1204;SDS011;592;48.764;9.174;2023-12-20T12:50:06;3.50;;;1.53;;
1204;SDS011;592;48.764;9.174;2023-12-20T12:55:11;2.37;;;1.00;;
1204;SDS011;592;48.764;9.174;2023-12-20T12:57:38;2.27;;;1.03;;
1204;SDS011;592;48.764;9.174;2023-12-20T13:00:06;4.30;;;1.40;;
1204;SDS011;592;48.764;9.174;2023-12-20T13:02:50;2.20;;;0.90;;
1204;SDS011;592;48.764;9.174;2023-12-20T13:05:17;3.23;;;1.17;;
1204;SDS011;592;48.764;9.174;2023-12-20T13:07:45;3.30;;;1.13;;
1204;SDS011;592;48.764;9.174;2023-12-20T13:10:12;3.13;;;1.20;;
1204;SDS011;592;48.764;9.174;2023-12-20T13:12:43;4.43;;;0.93;;
1204;SDS011;592;48.764;9.174;2023-12-20T13:17:46;5.30;;;1.50;;
1204;SDS011;592;48.764;9.174;2023-12-20T13:20:14;3.70;;;1.00;;
1204;SDS011;592;48.764;9.174;2023-12-20T13:22:41;3.60;;;1.50;;
1204;SDS011;592;48.764;9.174;2023-12-20T13:25:08;5.37;;;1.10;;
1204;SDS011;592;48.764;9.174;2023-12-20T13:27:34;2.70;;;1.10;;
1204;SDS011;592;48.764;9.174;2023-12-20T13:30:01;4.60;;;1.30;;
1204;SDS011;592;48.764;9.174;2023-12-20T13:32:29;2.40;;;0.90;;
1204;SDS011;592;48.764;9.174;2023-12-20T13:34:56;3.80;;;0.90;;
1204;SDS011;592;48.764;9.174;2023-12-20T13:37:24;2.43;;;0.97;;
1204;SDS011;592;48.764;9.174;2023-12-20T13:39:51;2.20;;;0.80;;
1204;SDS011;592;48.764;9.174;2023-12-20T13:42:17;4.10;;;1.37;;
1204;SDS011;592;48.764;9.174;2023-12-20T13:44:45;5.60;;;1.30;;
1204;SDS011;592;48.764;9.174;2023-12-20T13:47:12;4.73;;;1.10;;
1204;SDS011;592;48.764;9.174;2023-12-20T13:49:39;7.57;;;2.60;;
1204;SDS011;592;48.764;9.174;2023-12-20T13:52:05;5.00;;;1.63;;
1204;SDS011;592;48.764;9.174;2023-12-20T13:54:34;5.33;;;2.13;;
1204;SDS011;592;48.764;9.174;2023-12-20T13:57:00;2.40;;;1.07;;
1204;SDS011;592;48.764;9.174;2023-12-20T13:59:28;2.43;;;0.93;;
1204;SDS011;592;48.764;9.174;2023-12-20T14:01:58;11.77;;;3.70;;
1204;SDS011;592;48.764;9.174;2023-12-20T14:04:26;3.37;;;1.50;;
1204;SDS011;592;48.764;9.174;2023-12-20T14:06:56;5.87;;;1.30;;
1204;SDS011;592;48.764;9.174;2023-12-20T14:09:26;3.10;;;1.10;;
1204;SDS011;592;48.764;9.174;2023-12-20T14:11:55;3.33;;;1.60;;
1204;SDS011;592;48.764;9.174;2023-12-20T14:14:20;3.07;;;1.30;;
1204;SDS011;592;48.764;9.174;2023-12-20T14:16:49;6.23;;;0.90;;
1204;SDS011;592;48.764;9.174;2023-12-20T14:19:18;3.23;;;1.13;;
1204;SDS011;592;48.764;9.174;2023-12-20T14:21:45;2.70;;;1.10;;
1204;SDS011;592;48.764;9.174;2023-12-20T14:24:13;3.73;;;1.10;;
1204;SDS011;592;48.764;9.174;2023-12-20T14:26:40;2.07;;;0.80;;
1204;SDS011;592;48.764;9.174;2023-12-20T14:29:10;2.03;;;0.80;;
1204;SDS011;592;48.764;9.174;2023-12-20T14:31:37;3.17;;;1.13;;
1204;SDS011;592;48.764;9.174;2023-12-20T14:34:05;2.60;;;1.20;;
1204;SDS011;592;48.764;9.174;2023-12-20T14:36:31;2.80;;;0.80;;
1204;SDS011;592;48.764;9.174;2023-12-20T14:41:39;7.00;;;1.37;;
1204;SDS011;592;48.764;9.174;2023-12-20T14:44:06;13.53;;;1.37;;
1204;SDS011;592;48.764;9.174;2023-12-20T14:46:34;3.17;;;1.10;;
1204;SDS011;592;48.764;9.174;2023-12-20T14:49:01;2.10;;;0.70;;
1204;SDS011;592;48.764;9.174;2023-12-20T14:51:28;3.23;;;1.23;;
1204;SDS011;592;48.764;9.174;2023-12-20T14:53:55;2.80;;;1.10;;
1204;SDS011;592;48.764;9.174;2023-12-20T14:56:23;2.80;;;0.97;;
1204;SDS011;592;48.764;9.174;2023-12-20T14:58:51;2.80;;;1.00;;
1204;SDS011;592;48.764;9.174;2023-12-20T15:01:17;2.13;;;0.83;;
1204;SDS011;592;48.764;9.174;2023-12-20T15:03:47;2.23;;;0.80;;
1204;SDS011;592;48.764;9.174;2023-12-20T15:06:14;9.67;;;1.17;;
1204;SDS011;592;48.764;9.174;2023-12-20T15:08:41;2.20;;;0.90;;
1204;SDS011;592;48.764;9.174;2023-12-20T15:11:07;3.50;;;1.40;;
1204;SDS011;592;48.764;9.174;2023-12-20T15:13:36;2.70;;;1.20;;
1204;SDS011;592;48.764;9.174;2023-12-20T15:16:03;5.20;;;1.27;;
1204;SDS011;592;48.764;9.174;2023-12-20T15:18:31;4.60;;;1.50;;
1204;SDS011;592;48.764;9.174;2023-12-20T15:20:59;2.97;;;1.20;;
1204;SDS011;592;48.764;9.174;2023-12-20T15:23:26;3.47;;;1.10;;
1204;SDS011;592;48.764;9.174;2023-12-20T15:25:53;3.23;;;1.17;;
1204;SDS011;592;48.764;9.174;2023-12-20T15:28:20;3.27;;;1.10;;
1204;SDS011;592;48.764;9.174;2023-12-20T15:30:50;2.50;;;0.97;;
1204;SDS011;592;48.764;9.174;2023-12-20T15:33:16;2.70;;;0.80;;
1204;SDS011;592;48.764;9.174;2023-12-20T15:35:43;3.30;;;1.07;;
1204;SDS011;592;48.764;9.174;2023-12-20T15:38:11;4.23;;;1.53;;
1204;SDS011;592;48.764;9.174;2023-12-20T15:40:42;5.10;;;1.30;;
1204;SDS011;592;48.764;9.174;2023-12-20T15:43:08;3.80;;;1.60;;
1204;SDS011;592;48.764;9.174;2023-12-20T15:45:35;2.97;;;1.00;;
1204;SDS011;592;48.764;9.174;2023-12-20T15:48:02;4.70;;;1.27;;
1204;SDS011;592;48.764;9.174;2023-12-20T15:50:30;2.50;;;1.20;;
1204;SDS011;592;48.764;9.174;2023-12-20T15:52:57;3.50;;;1.60;;
1204;SDS011;592;48.764;9.174;2023-12-20T15:55:25;3.53;;;1.27;;